sensor_id;sensor_type;location;lat;lon;timestamp;P1;durP1;ratioP1;P2;durP2;ratioP2
23206;SDS011;11773;52.570;13.052;2024-03-23T00:55:05;0.87;;;0.70;;
23206;SDS011;11773;52.570;13.052;2024-03-23T00:57:35;1.37;;;0.87;;
23206;SDS011;11773;52.570;13.052;2024-03-23T01:00:04;2.13;;;0.83;;
23206;SDS011;11773;52.570;13.052;2024-03-23T01:02:36;0.40;;;0.40;;
23206;SDS011;11773;52.570;13.052;2024-03-23T01:05:06;1.00;;;0.43;;
23206;SDS011;11773;52.570;13.052;2024-03-23T01:07:35;1.00;;;0.70;;
23206;SDS011;11773;52.570;13.052;2024-03-23T01:10:05;0.70;;;0.40;;
23206;SDS011;11773;52.570;13.052;2024-03-23T01:12:35;0.83;;;0.50;;
23206;SDS011;11773;52.570;13.052;2024-03-23T01:15:04;1.53;;;0.70;;
23206;SDS011;11773;52.570;13.052;2024-03-23T01:17:34;1.37;;;0.50;;
23206;SDS011;11773;52.570;13.052;2024-03-23T01:20:04;0.97;;;0.60;;
23206;SDS011;11773;52.570;13.052;2024-03-23T01:22:33;1.03;;;0.60;;
23206;SDS011;11773;52.570;13.052;2024-03-23T01:25:03;0.57;;;0.40;;
23206;SDS011;11773;52.570;13.052;2024-03-23T01:27:33;0.73;;;0.50;;
23206;SDS011;11773;52.570;13.052;2024-03-23T01:30:03;0.40;;;0.40;;
23206;SDS011;11773;52.570;13.052;2024-03-23T01:32:32;1.33;;;0.50;;
23206;SDS011;11773;52.570;13.052;2024-03-23T01:35:02;1.70;;;0.63;;
23206;SDS011;11773;52.570;13.052;2024-03-23T01:37:32;0.43;;;0.30;;
23206;SDS011;11773;52.570;13.052;2024-03-23T01:40:01;0.93;;;0.50;;
23206;SDS011;11773;52.570;13.052;2024-03-23T01:42:31;0.50;;;0.50;;
23206;SDS011;11773;52.570;13.052;2024-03-23T01:45:01;0.90;;;0.63;;
23206;SDS011;11773;52.570;13.052;2024-03-23T01:47:32;0.90;;;0.60;;
23206;SDS011;11773;52.570;13.052;2024-03-23T01:50:02;0.70;;;0.47;;
23206;SDS011;11773;52.570;13.052;2024-03-23T01:52:32;0.80;;;0.40;;
23206;SDS011;11773;52.570;13.052;2024-03-23T01:55:02;1.23;;;0.60;;
23206;SDS011;11773;52.570;13.052;2024-03-23T01:57:32;1.07;;;0.57;;
23206;SDS011;11773;52.570;13.052;2024-03-23T02:00:01;0.40;;;0.40;;
23206;SDS011;11773;52.570;13.052;2024-03-23T02:02:31;0.50;;;0.50;;
23206;SDS011;11773;52.570;13.052;2024-03-23T02:05:01;1.30;;;0.80;;
23206;SDS011;11773;52.570;13.052;2024-03-23T02:07:31;0.57;;;0.40;;
23206;SDS011;11773;52.570;13.052;2024-03-23T02:10:01;0.80;;;0.50;;
23206;SDS011;11773;52.570;13.052;2024-03-23T02:12:31;0.80;;;0.50;;
23206;SDS011;11773;52.570;13.052;2024-03-23T02:15:01;0.90;;;0.50;;
23206;SDS011;11773;52.570;13.052;2024-03-23T02:17:33;0.53;;;0.43;;
23206;SDS011;11773;52.570;13.052;2024-03-23T02:20:03;0.63;;;0.40;;
23206;SDS011;11773;52.570;13.052;2024-03-23T02:22:43;0.87;;;0.60;;
23206;SDS011;11773;52.570;13.052;2024-03-23T02:25:07;0.80;;;0.40;;
23206;SDS011;11773;52.570;13.052;2024-03-23T02:27:37;1.40;;;0.70;;
23206;SDS011;11773;52.570;13.052;2024-03-23T02:30:07;1.20;;;0.43;;
23206;SDS011;11773;52.570;13.052;2024-03-23T02:32:37;1.20;;;0.63;;
23206;SDS011;11773;52.570;13.052;2024-03-23T02:35:07;0.97;;;0.40;;
23206;SDS011;11773;52.570;13.052;2024-03-23T02:37:36;1.77;;;0.80;;
23206;SDS011;11773;52.570;13.052;2024-03-23T02:40:06;1.13;;;0.80;;
23206;SDS011;11773;52.570;13.052;2024-03-23T02:42:36;0.97;;;0.70;;
23206;SDS011;11773;52.570;13.052;2024-03-23T02:45:05;1.23;;;0.60;;
23206;SDS011;11773;52.570;13.052;2024-03-23T02:47:35;0.47;;;0.43;;
23206;SDS011;11773;52.570;13.052;2024-03-23T02:50:05;1.30;;;0.57;;
23206;SDS011;11773;52.570;13.052;2024-03-23T02:52:36;1.23;;;0.90;;
23206;SDS011;11773;52.570;13.052;2024-03-23T02:55:06;0.40;;;0.40;;
23206;SDS011;11773;52.570;13.052;2024-03-23T02:57:36;0.57;;;0.47;;
23206;SDS011;11773;52.570;13.052;2024-03-23T03:00:05;1.00;;;0.37;;
23206;SDS011;11773;52.570;13.052;2024-03-23T03:02:37;0.40;;;0.30;;
23206;SDS011;11773;52.570;13.052;2024-03-23T03:05:07;0.60;;;0.50;;
23206;SDS011;11773;52.570;13.052;2024-03-23T03:07:38;1.10;;;0.60;;
23206;SDS011;11773;52.570;13.052;2024-03-23T03:10:08;1.63;;;0.67;;
23206;SDS011;11773;52.570;13.052;2024-03-23T03:12:38;0.60;;;0.43;;
23206;SDS011;11773;52.570;13.052;2024-03-23T03:15:08;1.20;;;0.70;;
23206;SDS011;11773;52.570;13.052;2024-03-23T03:17:38;0.40;;;0.40;;
23206;SDS011;11773;52.570;13.052;2024-03-23T03:20:08;0.83;;;0.30;;
23206;SDS011;11773;52.570;13.052;2024-03-23T03:22:39;0.93;;;0.40;;
23206;SDS011;11773;52.570;13.052;2024-03-23T03:25:09;0.60;;;0.40;;
23206;SDS011;11773;52.570;13.052;2024-03-23T03:27:39;0.93;;;0.40;;
23206;SDS011;11773;52.570;13.052;2024-03-23T03:30:09;0.80;;;0.50;;
23206;SDS011;11773;52.570;13.052;2024-03-23T03:32:39;0.60;;;0.30;;
23206;SDS011;11773;52.570;13.052;2024-03-23T03:35:08;0.27;;;0.27;;
23206;SDS011;11773;52.570;13.052;2024-03-23T03:37:38;1.20;;;0.70;;
23206;SDS011;11773;52.570;13.052;2024-03-23T03:40:08;1.05;;;0.60;;
23206;SDS011;11773;52.570;13.052;2024-03-23T03:42:38;1.07;;;0.50;;
23206;SDS011;11773;52.570;13.052;2024-03-23T03:45:07;1.90;;;1.00;;
23206;SDS011;11773;52.570;13.052;2024-03-23T03:47:37;1.27;;;0.53;;
23206;SDS011;11773;52.570;13.052;2024-03-23T03:50:07;1.30;;;0.60;;
23206;SDS011;11773;52.570;13.052;2024-03-23T03:52:36;0.47;;;0.40;;
23206;SDS011;11773;52.570;13.052;2024-03-23T03:55:12;0.57;;;0.50;;
23206;SDS011;11773;52.570;13.052;2024-03-23T03:57:42;0.80;;;0.60;;
23206;SDS011;11773;52.570;13.052;2024-03-23T04:00:12;0.40;;;0.40;;
23206;SDS011;11773;52.570;13.052;2024-03-23T04:02:42;0.73;;;0.50;;
23206;SDS011;11773;52.570;13.052;2024-03-23T04:05:12;1.37;;;0.67;;
23206;SDS011;11773;52.570;13.052;2024-03-23T04:07:42;0.77;;;0.50;;
23206;SDS011;11773;52.570;13.052;2024-03-23T04:10:12;2.80;;;0.60;;
23206;SDS011;11773;52.570;13.052;2024-03-23T04:12:42;0.70;;;0.47;;
23206;SDS011;11773;52.570;13.052;2024-03-23T04:15:12;0.77;;;0.50;;
23206;SDS011;11773;52.570;13.052;2024-03-23T04:17:42;1.20;;;0.57;;
23206;SDS011;11773;52.570;13.052;2024-03-23T04:20:12;0.43;;;0.37;;
23206;SDS011;11773;52.570;13.052;2024-03-23T04:22:43;0.43;;;0.23;;
23206;SDS011;11773;52.570;13.052;2024-03-23T04:25:13;0.80;;;0.60;;
23206;SDS011;11773;52.570;13.052;2024-03-23T04:27:42;0.73;;;0.50;;
23206;SDS011;11773;52.570;13.052;2024-03-23T04:30:13;0.70;;;0.50;;
23206;SDS011;11773;52.570;13.052;2024-03-23T04:32:43;0.30;;;0.20;;
23206;SDS011;11773;52.570;13.052;2024-03-23T04:35:13;0.83;;;0.30;;
23206;SDS011;11773;52.570;13.052;2024-03-23T04:37:43;0.43;;;0.40;;
23206;SDS011;11773;52.570;13.052;2024-03-23T04:40:12;0.73;;;0.40;;
23206;SDS011;11773;52.570;13.052;2024-03-23T04:42:42;1.33;;;0.30;;
23206;SDS011;11773;52.570;13.052;2024-03-23T04:45:12;0.30;;;0.27;;
23206;SDS011;11773;52.570;13.052;2024-03-23T04:47:42;0.40;;;0.37;;
23206;SDS011;11773;52.570;13.052;2024-03-23T04:50:12;0.73;;;0.30;;
23206;SDS011;11773;52.570;13.052;2024-03-23T04:52:41;0.40;;;0.20;;
23206;SDS011;11773;52.570;13.052;2024-03-23T04:55:11;0.67;;;0.53;;
23206;SDS011;11773;52.570;13.052;2024-03-23T04:57:41;0.57;;;0.50;;
23206;SDS011;11773;52.570;13.052;2024-03-23T05:00:11;0.33;;;0.30;;
23206;SDS011;11773;52.570;13.052;2024-03-23T05:02:44;0.30;;;0.20;;
23206;SDS011;11773;52.570;13.052;2024-03-23T05:05:14;0.37;;;0.20;;
23206;SDS011;11773;52.570;13.052;2024-03-23T05:07:43;0.57;;;0.43;;
23206;SDS011;11773;52.570;13.052;2024-03-23T05:10:13;0.77;;;0.30;;
23206;SDS011;11773;52.570;13.052;2024-03-23T05:12:43;0.70;;;0.33;;
23206;SDS011;11773;52.570;13.052;2024-03-23T05:15:13;0.30;;;0.27;;
23206;SDS011;11773;52.570;13.052;2024-03-23T05:17:42;1.07;;;0.47;;
23206;SDS011;11773;52.570;13.052;2024-03-23T05:20:12;0.23;;;0.23;;
23206;SDS011;11773;52.570;13.052;2024-03-23T05:22:41;0.83;;;0.40;;
23206;SDS011;11773;52.570;13.052;2024-03-23T05:25:11;0.30;;;0.30;;
23206;SDS011;11773;52.570;13.052;2024-03-23T05:27:40;0.37;;;0.20;;
23206;SDS011;11773;52.570;13.052;2024-03-23T05:30:10;0.67;;;0.40;;
23206;SDS011;11773;52.570;13.052;2024-03-23T05:32:40;0.67;;;0.40;;
23206;SDS011;11773;52.570;13.052;2024-03-23T05:35:09;0.40;;;0.40;;
23206;SDS011;11773;52.570;13.052;2024-03-23T05:37:39;0.80;;;0.40;;
23206;SDS011;11773;52.570;13.052;2024-03-23T05:40:08;0.60;;;0.30;;
23206;SDS011;11773;52.570;13.052;2024-03-23T05:42:40;1.13;;;0.30;;
23206;SDS011;11773;52.570;13.052;2024-03-23T05:45:10;0.60;;;0.50;;
23206;SDS011;11773;52.570;13.052;2024-03-23T05:47:39;0.70;;;0.40;;
23206;SDS011;11773;52.570;13.052;2024-03-23T05:50:09;0.67;;;0.60;;
23206;SDS011;11773;52.570;13.052;2024-03-23T05:52:39;0.83;;;0.70;;
23206;SDS011;11773;52.570;13.052;2024-03-23T05:55:10;1.30;;;0.63;;
23206;SDS011;11773;52.570;13.052;2024-03-23T05:57:40;0.87;;;0.70;;
23206;SDS011;11773;52.570;13.052;2024-03-23T06:00:10;0.80;;;0.60;;
23206;SDS011;11773;52.570;13.052;2024-03-23T06:02:43;0.63;;;0.63;;
23206;SDS011;11773;52.570;13.052;2024-03-23T06:05:12;0.70;;;0.63;;
23206;SDS011;11773;52.570;13.052;2024-03-23T06:07:42;0.67;;;0.40;;
23206;SDS011;11773;52.570;13.052;2024-03-23T06:10:11;0.87;;;0.50;;
23206;SDS011;11773;52.570;13.052;2024-03-23T06:12:41;0.63;;;0.63;;
23206;SDS011;11773;52.570;13.052;2024-03-23T06:15:11;0.57;;;0.37;;
23206;SDS011;11773;52.570;13.052;2024-03-23T06:17:41;0.70;;;0.40;;
23206;SDS011;11773;52.570;13.052;2024-03-23T06:20:11;0.57;;;0.30;;
23206;SDS011;11773;52.570;13.052;2024-03-23T06:22:41;0.43;;;0.30;;
23206;SDS011;11773;52.570;13.052;2024-03-23T06:25:11;0.43;;;0.43;;
23206;SDS011;11773;52.570;13.052;2024-03-23T06:27:40;0.40;;;0.30;;
23206;SDS011;11773;52.570;13.052;2024-03-23T06:30:10;1.40;;;0.37;;
23206;SDS011;11773;52.570;13.052;2024-03-23T06:32:40;0.30;;;0.20;;
23206;SDS011;11773;52.570;13.052;2024-03-23T06:35:10;0.67;;;0.60;;
23206;SDS011;11773;52.570;13.052;2024-03-23T06:37:40;0.33;;;0.33;;
23206;SDS011;11773;52.570;13.052;2024-03-23T06:40:09;0.30;;;0.30;;
23206;SDS011;11773;52.570;13.052;2024-03-23T06:42:39;0.53;;;0.30;;
23206;SDS011;11773;52.570;13.052;2024-03-23T06:45:08;0.60;;;0.40;;
23206;SDS011;11773;52.570;13.052;2024-03-23T06:47:38;0.70;;;0.57;;
23206;SDS011;11773;52.570;13.052;2024-03-23T06:50:08;0.70;;;0.60;;
23206;SDS011;11773;52.570;13.052;2024-03-23T06:52:38;0.30;;;0.30;;
23206;SDS011;11773;52.570;13.052;2024-03-23T06:55:07;0.93;;;0.70;;
23206;SDS011;11773;52.570;13.052;2024-03-23T06:57:37;1.30;;;0.50;;
23206;SDS011;11773;52.570;13.052;2024-03-23T07:00:07;0.77;;;0.50;;
23206;SDS011;11773;52.570;13.052;2024-03-23T07:02:37;0.40;;;0.30;;
23206;SDS011;11773;52.570;13.052;2024-03-23T07:05:06;0.77;;;0.50;;
23206;SDS011;11773;52.570;13.052;2024-03-23T07:07:37;0.80;;;0.50;;
23206;SDS011;11773;52.570;13.052;2024-03-23T07:10:08;1.90;;;0.80;;
23206;SDS011;11773;52.570;13.052;2024-03-23T07:12:37;0.90;;;0.60;;
23206;SDS011;11773;52.570;13.052;2024-03-23T07:15:07;1.73;;;0.90;;
23206;SDS011;11773;52.570;13.052;2024-03-23T07:17:37;1.20;;;0.60;;
23206;SDS011;11773;52.570;13.052;2024-03-23T07:20:06;0.63;;;0.60;;
23206;SDS011;11773;52.570;13.052;2024-03-23T07:22:39;1.37;;;0.60;;
23206;SDS011;11773;52.570;13.052;2024-03-23T07:25:08;0.77;;;0.50;;
23206;SDS011;11773;52.570;13.052;2024-03-23T07:27:38;2.27;;;0.83;;
23206;SDS011;11773;52.570;13.052;2024-03-23T07:30:08;0.83;;;0.60;;
23206;SDS011;11773;52.570;13.052;2024-03-23T07:32:37;1.13;;;0.50;;
23206;SDS011;11773;52.570;13.052;2024-03-23T07:35:09;0.57;;;0.53;;
23206;SDS011;11773;52.570;13.052;2024-03-23T07:37:38;1.67;;;0.80;;
23206;SDS011;11773;52.570;13.052;2024-03-23T07:40:10;0.40;;;0.40;;
23206;SDS011;11773;52.570;13.052;2024-03-23T07:42:40;0.50;;;0.50;;
23206;SDS011;11773;52.570;13.052;2024-03-23T07:45:11;0.77;;;0.40;;
23206;SDS011;11773;52.570;13.052;2024-03-23T07:47:41;0.73;;;0.37;;
23206;SDS011;11773;52.570;13.052;2024-03-23T07:50:10;0.83;;;0.50;;
23206;SDS011;11773;52.570;13.052;2024-03-23T07:52:40;0.30;;;0.30;;
23206;SDS011;11773;52.570;13.052;2024-03-23T07:55:09;0.63;;;0.47;;
23206;SDS011;11773;52.570;13.052;2024-03-23T07:57:39;0.57;;;0.57;;
23206;SDS011;11773;52.570;13.052;2024-03-23T08:00:09;1.33;;;0.80;;
23206;SDS011;11773;52.570;13.052;2024-03-23T08:02:40;0.50;;;0.50;;
23206;SDS011;11773;52.570;13.052;2024-03-23T08:05:11;0.50;;;0.33;;
23206;SDS011;11773;52.570;13.052;2024-03-23T08:07:40;0.80;;;0.30;;
23206;SDS011;11773;52.570;13.052;2024-03-23T08:10:10;1.13;;;0.60;;
23206;SDS011;11773;52.570;13.052;2024-03-23T08:12:40;1.87;;;0.63;;
23206;SDS011;11773;52.570;13.052;2024-03-23T08:15:11;1.53;;;0.97;;
23206;SDS011;11773;52.570;13.052;2024-03-23T08:17:41;0.50;;;0.50;;
23206;SDS011;11773;52.570;13.052;2024-03-23T08:20:10;0.60;;;0.50;;
23206;SDS011;11773;52.570;13.052;2024-03-23T08:22:40;0.80;;;0.50;;
23206;SDS011;11773;52.570;13.052;2024-03-23T08:25:10;0.50;;;0.30;;
23206;SDS011;11773;52.570;13.052;2024-03-23T08:27:39;0.60;;;0.50;;
23206;SDS011;11773;52.570;13.052;2024-03-23T08:30:09;0.93;;;0.60;;
23206;SDS011;11773;52.570;13.052;2024-03-23T08:32:38;0.40;;;0.30;;
23206;SDS011;11773;52.570;13.052;2024-03-23T08:35:08;1.30;;;0.50;;
23206;SDS011;11773;52.570;13.052;2024-03-23T08:37:38;0.50;;;0.30;;
23206;SDS011;11773;52.570;13.052;2024-03-23T08:40:07;1.07;;;0.50;;
23206;SDS011;11773;52.570;13.052;2024-03-23T08:42:37;0.83;;;0.37;;
23206;SDS011;11773;52.570;13.052;2024-03-23T08:45:07;0.30;;;0.30;;
23206;SDS011;11773;52.570;13.052;2024-03-23T08:47:36;0.30;;;0.30;;
23206;SDS011;11773;52.570;13.052;2024-03-23T08:50:06;0.20;;;0.20;;
23206;SDS011;11773;52.570;13.052;2024-03-23T08:52:36;0.80;;;0.33;;
23206;SDS011;11773;52.570;13.052;2024-03-23T08:55:05;0.47;;;0.40;;
23206;SDS011;11773;52.570;13.052;2024-03-23T08:57:36;0.63;;;0.43;;
23206;SDS011;11773;52.570;13.052;2024-03-23T09:00:07;0.75;;;0.30;;
23206;SDS011;11773;52.570;13.052;2024-03-23T09:02:38;0.30;;;0.30;;
23206;SDS011;11773;52.570;13.052;2024-03-23T09:05:08;0.60;;;0.50;;
23206;SDS011;11773;52.570;13.052;2024-03-23T09:07:39;1.00;;;0.43;;
23206;SDS011;11773;52.570;13.052;2024-03-23T09:10:08;1.43;;;0.50;;
23206;SDS011;11773;52.570;13.052;2024-03-23T09:12:38;0.40;;;0.40;;
23206;SDS011;11773;52.570;13.052;2024-03-23T09:15:07;0.50;;;0.30;;
23206;SDS011;11773;52.570;13.052;2024-03-23T09:17:37;0.83;;;0.57;;
23206;SDS011;11773;52.570;13.052;2024-03-23T09:20:07;0.87;;;0.50;;
23206;SDS011;11773;52.570;13.052;2024-03-23T09:22:37;0.43;;;0.43;;
23206;SDS011;11773;52.570;13.052;2024-03-23T09:25:06;0.60;;;0.50;;
23206;SDS011;11773;52.570;13.052;2024-03-23T09:27:36;1.33;;;0.50;;
23206;SDS011;11773;52.570;13.052;2024-03-23T09:30:06;0.50;;;0.30;;
23206;SDS011;11773;52.570;13.052;2024-03-23T09:32:37;1.07;;;0.43;;
23206;SDS011;11773;52.570;13.052;2024-03-23T09:35:10;0.70;;;0.50;;
23206;SDS011;11773;52.570;13.052;2024-03-23T09:37:42;1.17;;;0.40;;
23206;SDS011;11773;52.570;13.052;2024-03-23T09:40:13;1.02;;;0.65;;
23206;SDS011;11773;52.570;13.052;2024-03-23T09:42:43;0.87;;;0.50;;
23206;SDS011;11773;52.570;13.052;2024-03-23T09:45:23;0.80;;;0.60;;
23206;SDS011;11773;52.570;13.052;2024-03-23T09:47:57;1.70;;;0.73;;
23206;SDS011;11773;52.570;13.052;2024-03-23T09:50:26;1.20;;;0.60;;
23206;SDS011;11773;52.570;13.052;2024-03-23T09:52:56;0.40;;;0.40;;
23206;SDS011;11773;52.570;13.052;2024-03-23T09:55:26;1.03;;;0.60;;
23206;SDS011;11773;52.570;13.052;2024-03-23T09:57:56;0.67;;;0.47;;
23206;SDS011;11773;52.570;13.052;2024-03-23T10:00:25;1.20;;;0.50;;
23206;SDS011;11773;52.570;13.052;2024-03-23T10:02:55;1.30;;;0.60;;
23206;SDS011;11773;52.570;13.052;2024-03-23T10:05:27;0.67;;;0.50;;
23206;SDS011;11773;52.570;13.052;2024-03-23T10:10:46;0.93;;;0.77;;
23206;SDS011;11773;52.570;13.052;2024-03-23T10:13:28;1.07;;;0.60;;
23206;SDS011;11773;52.570;13.052;2024-03-23T10:15:59;1.87;;;0.90;;
23206;SDS011;11773;52.570;13.052;2024-03-23T10:18:28;1.00;;;0.67;;
23206;SDS011;11773;52.570;13.052;2024-03-23T10:23:39;0.47;;;0.43;;
23206;SDS011;11773;52.570;13.052;2024-03-23T10:26:15;0.97;;;0.60;;
23206;SDS011;11773;52.570;13.052;2024-03-23T10:29:00;1.80;;;1.00;;
23206;SDS011;11773;52.570;13.052;2024-03-23T10:31:38;1.20;;;0.97;;
23206;SDS011;11773;52.570;13.052;2024-03-23T10:34:08;1.33;;;0.90;;
23206;SDS011;11773;52.570;13.052;2024-03-23T10:36:40;1.07;;;0.80;;
23206;SDS011;11773;52.570;13.052;2024-03-23T10:39:11;1.27;;;0.60;;
23206;SDS011;11773;52.570;13.052;2024-03-23T10:41:44;0.67;;;0.50;;
23206;SDS011;11773;52.570;13.052;2024-03-23T10:44:17;2.47;;;0.83;;
23206;SDS011;11773;52.570;13.052;2024-03-23T10:46:52;0.73;;;0.57;;
23206;SDS011;11773;52.570;13.052;2024-03-23T10:49:23;1.00;;;0.83;;
23206;SDS011;11773;52.570;13.052;2024-03-23T10:52:00;0.50;;;0.50;;
23206;SDS011;11773;52.570;13.052;2024-03-23T10:54:32;1.00;;;0.60;;
23206;SDS011;11773;52.570;13.052;2024-03-23T10:57:09;0.77;;;0.60;;
23206;SDS011;11773;52.570;13.052;2024-03-23T10:59:52;0.30;;;0.30;;
23206;SDS011;11773;52.570;13.052;2024-03-23T11:02:22;0.43;;;0.40;;
23206;SDS011;11773;52.570;13.052;2024-03-23T11:04:55;0.50;;;0.50;;
23206;SDS011;11773;52.570;13.052;2024-03-23T11:07:29;0.70;;;0.40;;
23206;SDS011;11773;52.570;13.052;2024-03-23T11:09:59;1.00;;;0.57;;
23206;SDS011;11773;52.570;13.052;2024-03-23T11:12:30;0.63;;;0.43;;
23206;SDS011;11773;52.570;13.052;2024-03-23T11:15:01;1.53;;;0.80;;
23206;SDS011;11773;52.570;13.052;2024-03-23T11:17:33;0.57;;;0.40;;
23206;SDS011;11773;52.570;13.052;2024-03-23T11:20:03;0.50;;;0.40;;
23206;SDS011;11773;52.570;13.052;2024-03-23T11:22:46;1.23;;;0.63;;
23206;SDS011;11773;52.570;13.052;2024-03-23T11:25:24;0.93;;;0.50;;
23206;SDS011;11773;52.570;13.052;2024-03-23T11:28:09;0.70;;;0.50;;
23206;SDS011;11773;52.570;13.052;2024-03-23T11:30:42;0.50;;;0.50;;
23206;SDS011;11773;52.570;13.052;2024-03-23T11:33:12;0.70;;;0.40;;
23206;SDS011;11773;52.570;13.052;2024-03-23T11:35:42;0.67;;;0.60;;
23206;SDS011;11773;52.570;13.052;2024-03-23T11:38:12;0.90;;;0.50;;
23206;SDS011;11773;52.570;13.052;2024-03-23T11:40:46;1.60;;;0.80;;
23206;SDS011;11773;52.570;13.052;2024-03-23T11:43:19;2.37;;;0.80;;
23206;SDS011;11773;52.570;13.052;2024-03-23T11:45:50;2.20;;;1.30;;
23206;SDS011;11773;52.570;13.052;2024-03-23T11:48:22;1.73;;;0.90;;
23206;SDS011;11773;52.570;13.052;2024-03-23T11:50:55;1.33;;;0.70;;
23206;SDS011;11773;52.570;13.052;2024-03-23T11:53:26;0.70;;;0.50;;
23206;SDS011;11773;52.570;13.052;2024-03-23T11:55:56;0.83;;;0.60;;
23206;SDS011;11773;52.570;13.052;2024-03-23T11:58:29;1.47;;;0.70;;
23206;SDS011;11773;52.570;13.052;2024-03-23T12:01:03;1.37;;;0.77;;
23206;SDS011;11773;52.570;13.052;2024-03-23T12:03:32;0.97;;;0.53;;
23206;SDS011;11773;52.570;13.052;2024-03-23T12:06:03;1.90;;;0.73;;
23206;SDS011;11773;52.570;13.052;2024-03-23T12:08:34;1.50;;;1.00;;
23206;SDS011;11773;52.570;13.052;2024-03-23T12:11:06;0.97;;;0.63;;
23206;SDS011;11773;52.570;13.052;2024-03-23T12:13:44;0.70;;;0.57;;
23206;SDS011;11773;52.570;13.052;2024-03-23T12:16:17;2.13;;;0.70;;
23206;SDS011;11773;52.570;13.052;2024-03-23T12:18:48;1.07;;;0.60;;
23206;SDS011;11773;52.570;13.052;2024-03-23T12:21:18;1.52;;;0.60;;
23206;SDS011;11773;52.570;13.052;2024-03-23T12:23:49;0.70;;;0.60;;
23206;SDS011;11773;52.570;13.052;2024-03-23T12:26:19;1.60;;;0.70;;
23206;SDS011;11773;52.570;13.052;2024-03-23T12:28:50;1.87;;;1.00;;
23206;SDS011;11773;52.570;13.052;2024-03-23T12:31:19;0.70;;;0.60;;
23206;SDS011;11773;52.570;13.052;2024-03-23T12:33:49;0.43;;;0.43;;
23206;SDS011;11773;52.570;13.052;2024-03-23T12:36:19;0.50;;;0.40;;
23206;SDS011;11773;52.570;13.052;2024-03-23T12:38:48;1.60;;;1.00;;
23206;SDS011;11773;52.570;13.052;2024-03-23T12:41:18;1.60;;;1.40;;
23206;SDS011;11773;52.570;13.052;2024-03-23T12:43:47;2.17;;;1.77;;
23206;SDS011;11773;52.570;13.052;2024-03-23T12:46:17;1.40;;;1.10;;
23206;SDS011;11773;52.570;13.052;2024-03-23T12:48:46;1.93;;;1.30;;
23206;SDS011;11773;52.570;13.052;2024-03-23T12:51:16;1.20;;;1.10;;
23206;SDS011;11773;52.570;13.052;2024-03-23T12:53:45;1.57;;;0.90;;
23206;SDS011;11773;52.570;13.052;2024-03-23T12:56:15;2.90;;;2.30;;
23206;SDS011;11773;52.570;13.052;2024-03-23T12:58:45;2.90;;;1.87;;
23206;SDS011;11773;52.570;13.052;2024-03-23T13:01:18;2.93;;;1.90;;
23206;SDS011;11773;52.570;13.052;2024-03-23T13:03:47;1.33;;;1.03;;
23206;SDS011;11773;52.570;13.052;2024-03-23T13:06:18;2.77;;;1.10;;
23206;SDS011;11773;52.570;13.052;2024-03-23T13:08:48;3.17;;;1.47;;
23206;SDS011;11773;52.570;13.052;2024-03-23T13:11:17;1.60;;;1.20;;
23206;SDS011;11773;52.570;13.052;2024-03-23T13:13:47;1.27;;;1.17;;
23206;SDS011;11773;52.570;13.052;2024-03-23T13:16:16;2.43;;;1.20;;
23206;SDS011;11773;52.570;13.052;2024-03-23T13:18:46;3.00;;;1.63;;
23206;SDS011;11773;52.570;13.052;2024-03-23T13:21:16;2.13;;;1.50;;
23206;SDS011;11773;52.570;13.052;2024-03-23T13:23:48;1.47;;;1.13;;
23206;SDS011;11773;52.570;13.052;2024-03-23T13:26:18;2.57;;;1.23;;
23206;SDS011;11773;52.570;13.052;2024-03-23T13:28:48;1.20;;;0.90;;
23206;SDS011;11773;52.570;13.052;2024-03-23T13:31:17;2.37;;;1.03;;
23206;SDS011;11773;52.570;13.052;2024-03-23T13:33:47;1.67;;;1.10;;
23206;SDS011;11773;52.570;13.052;2024-03-23T13:36:16;4.43;;;2.17;;
23206;SDS011;11773;52.570;13.052;2024-03-23T13:38:46;2.07;;;1.73;;
23206;SDS011;11773;52.570;13.052;2024-03-23T13:41:15;3.03;;;1.50;;
23206;SDS011;11773;52.570;13.052;2024-03-23T13:43:45;2.27;;;1.43;;
23206;SDS011;11773;52.570;13.052;2024-03-23T13:46:14;2.30;;;1.40;;
23206;SDS011;11773;52.570;13.052;2024-03-23T13:48:44;2.53;;;1.57;;
23206;SDS011;11773;52.570;13.052;2024-03-23T13:51:14;1.63;;;1.10;;
23206;SDS011;11773;52.570;13.052;2024-03-23T13:53:46;1.30;;;0.97;;
23206;SDS011;11773;52.570;13.052;2024-03-23T13:56:16;1.70;;;0.93;;
23206;SDS011;11773;52.570;13.052;2024-03-23T13:58:45;1.70;;;1.10;;
23206;SDS011;11773;52.570;13.052;2024-03-23T14:01:15;0.87;;;0.87;;
23206;SDS011;11773;52.570;13.052;2024-03-23T14:03:45;1.67;;;1.20;;
23206;SDS011;11773;52.570;13.052;2024-03-23T14:06:15;0.97;;;0.80;;
23206;SDS011;11773;52.570;13.052;2024-03-23T14:08:44;0.83;;;0.50;;
23206;SDS011;11773;52.570;13.052;2024-03-23T14:11:14;0.70;;;0.50;;
23206;SDS011;11773;52.570;13.052;2024-03-23T14:13:45;0.90;;;0.77;;
23206;SDS011;11773;52.570;13.052;2024-03-23T14:16:14;1.43;;;0.80;;
23206;SDS011;11773;52.570;13.052;2024-03-23T14:18:46;1.17;;;0.60;;
23206;SDS011;11773;52.570;13.052;2024-03-23T14:21:16;0.72;;;0.72;;
23206;SDS011;11773;52.570;13.052;2024-03-23T14:23:45;1.03;;;0.70;;
23206;SDS011;11773;52.570;13.052;2024-03-23T14:26:15;1.83;;;0.97;;
23206;SDS011;11773;52.570;13.052;2024-03-23T14:28:45;3.00;;;1.40;;
23206;SDS011;11773;52.570;13.052;2024-03-23T14:33:50;1.00;;;0.73;;
23206;SDS011;11773;52.570;13.052;2024-03-23T14:36:19;0.90;;;0.70;;
23206;SDS011;11773;52.570;13.052;2024-03-23T14:38:49;1.57;;;0.73;;
23206;SDS011;11773;52.570;13.052;2024-03-23T14:41:19;0.83;;;0.73;;
23206;SDS011;11773;52.570;13.052;2024-03-23T14:43:49;1.43;;;0.70;;
23206;SDS011;11773;52.570;13.052;2024-03-23T14:46:20;0.80;;;0.60;;
23206;SDS011;11773;52.570;13.052;2024-03-23T14:48:50;1.00;;;0.60;;
23206;SDS011;11773;52.570;13.052;2024-03-23T14:51:21;0.40;;;0.40;;
23206;SDS011;11773;52.570;13.052;2024-03-23T14:53:50;0.20;;;0.20;;
23206;SDS011;11773;52.570;13.052;2024-03-23T14:56:20;0.30;;;0.30;;
23206;SDS011;11773;52.570;13.052;2024-03-23T14:58:52;0.50;;;0.33;;
23206;SDS011;11773;52.570;13.052;2024-03-23T15:01:23;0.20;;;0.20;;
23206;SDS011;11773;52.570;13.052;2024-03-23T15:03:52;0.20;;;0.20;;
23206;SDS011;11773;52.570;13.052;2024-03-23T15:06:22;0.83;;;0.80;;
23206;SDS011;11773;52.570;13.052;2024-03-23T15:08:52;0.40;;;0.40;;
23206;SDS011;11773;52.570;13.052;2024-03-23T15:11:21;0.50;;;0.50;;
23206;SDS011;11773;52.570;13.052;2024-03-23T15:13:51;1.10;;;0.50;;
23206;SDS011;11773;52.570;13.052;2024-03-23T15:16:20;1.27;;;0.43;;
23206;SDS011;11773;52.570;13.052;2024-03-23T15:18:50;0.30;;;0.30;;
23206;SDS011;11773;52.570;13.052;2024-03-23T15:21:19;0.90;;;0.70;;
23206;SDS011;11773;52.570;13.052;2024-03-23T15:23:49;1.37;;;0.73;;
23206;SDS011;11773;52.570;13.052;2024-03-23T15:26:18;0.40;;;0.40;;
23206;SDS011;11773;52.570;13.052;2024-03-23T15:28:48;1.70;;;0.87;;
23206;SDS011;11773;52.570;13.052;2024-03-23T15:31:25;1.37;;;0.70;;
23206;SDS011;11773;52.570;13.052;2024-03-23T15:33:56;1.27;;;0.90;;
23206;SDS011;11773;52.570;13.052;2024-03-23T15:36:26;0.97;;;0.67;;
23206;SDS011;11773;52.570;13.052;2024-03-23T15:38:56;1.17;;;0.60;;
23206;SDS011;11773;52.570;13.052;2024-03-23T15:41:25;0.70;;;0.50;;
23206;SDS011;11773;52.570;13.052;2024-03-23T15:43:55;1.80;;;0.50;;
23206;SDS011;11773;52.570;13.052;2024-03-23T15:46:24;0.50;;;0.50;;
23206;SDS011;11773;52.570;13.052;2024-03-23T15:48:54;1.10;;;0.50;;
23206;SDS011;11773;52.570;13.052;2024-03-23T15:51:23;0.60;;;0.50;;
23206;SDS011;11773;52.570;13.052;2024-03-23T15:53:54;0.87;;;0.70;;